sensor_id;sensor_type;location;lat;lon;timestamp;temperature;humidity
9389;DHT22;4734;52.778;6.798;2023-07-30T00:00:07;17.90;99.90
9389;DHT22;4734;52.778;6.798;2023-07-30T00:02:54;17.80;99.90
9389;DHT22;4734;52.778;6.798;2023-07-30T00:05:39;17.80;99.90
9389;DHT22;4734;52.778;6.798;2023-07-30T00:08:26;17.80;99.90
9389;DHT22;4734;52.778;6.798;2023-07-30T00:11:12;17.80;99.90
9389;DHT22;4734;52.778;6.798;2023-07-30T00:13:57;17.80;99.90
9389;DHT22;4734;52.778;6.798;2023-07-30T00:16:43;17.70;99.90
9389;DHT22;4734;52.778;6.798;2023-07-30T00:19:29;17.80;99.90
9389;DHT22;4734;52.778;6.798;2023-07-30T00:22:14;17.70;99.90
9389;DHT22;4734;52.778;6.798;2023-07-30T00:25:01;17.70;99.90
9389;DHT22;4734;52.778;6.798;2023-07-30T00:27:47;17.70;99.90
9389;DHT22;4734;52.778;6.798;2023-07-30T00:30:33;17.70;99.90
9389;DHT22;4734;52.778;6.798;2023-07-30T00:33:18;17.70;99.90
9389;DHT22;4734;52.778;6.798;2023-07-30T00:36:04;17.60;99.90
9389;DHT22;4734;52.778;6.798;2023-07-30T00:38:50;17.60;99.90
9389;DHT22;4734;52.778;6.798;2023-07-30T00:41:36;17.60;99.90
9389;DHT22;4734;52.778;6.798;2023-07-30T00:44:23;17.60;99.90
9389;DHT22;4734;52.778;6.798;2023-07-30T00:47:08;17.60;99.90
9389;DHT22;4734;52.778;6.798;2023-07-30T00:49:54;17.50;99.90
9389;DHT22;4734;52.778;6.798;2023-07-30T00:52:39;17.50;99.90
9389;DHT22;4734;52.778;6.798;2023-07-30T00:55:25;17.50;99.90
9389;DHT22;4734;52.778;6.798;2023-07-30T00:58:12;17.50;99.90
9389;DHT22;4734;52.778;6.798;2023-07-30T01:00:58;17.50;99.90
9389;DHT22;4734;52.778;6.798;2023-07-30T01:03:44;17.50;99.90
9389;DHT22;4734;52.778;6.798;2023-07-30T01:06:30;17.40;99.90
9389;DHT22;4734;52.778;6.798;2023-07-30T01:09:15;17.40;99.90
9389;DHT22;4734;52.778;6.798;2023-07-30T01:23:09;17.40;99.90
9389;DHT22;4734;52.778;6.798;2023-07-30T01:26:01;17.30;99.90
9389;DHT22;4734;52.778;6.798;2023-07-30T01:28:49;17.20;99.90
9389;DHT22;4734;52.778;6.798;2023-07-30T01:31:40;17.20;99.90
9389;DHT22;4734;52.778;6.798;2023-07-30T01:34:27;17.10;99.90
9389;DHT22;4734;52.778;6.798;2023-07-30T01:37:13;17.10;99.90
9389;DHT22;4734;52.778;6.798;2023-07-30T01:40:01;17.10;99.90
9389;DHT22;4734;52.778;6.798;2023-07-30T01:42:48;17.10;99.90
9389;DHT22;4734;52.778;6.798;2023-07-30T01:45:34;17.10;99.90
9389;DHT22;4734;52.778;6.798;2023-07-30T01:48:19;17.00;99.90
9389;DHT22;4734;52.778;6.798;2023-07-30T01:51:05;17.00;99.90
9389;DHT22;4734;52.778;6.798;2023-07-30T01:53:50;17.00;99.90
9389;DHT22;4734;52.778;6.798;2023-07-30T01:56:37;17.00;99.90
9389;DHT22;4734;52.778;6.798;2023-07-30T01:59:23;16.90;99.90
9389;DHT22;4734;52.778;6.798;2023-07-30T02:02:09;16.90;99.90
9389;DHT22;4734;52.778;6.798;2023-07-30T02:04:54;16.90;99.90
9389;DHT22;4734;52.778;6.798;2023-07-30T02:07:40;16.80;99.90
9389;DHT22;4734;52.778;6.798;2023-07-30T02:10:26;16.90;99.90
9389;DHT22;4734;52.778;6.798;2023-07-30T02:13:13;16.80;99.90
9389;DHT22;4734;52.778;6.798;2023-07-30T02:15:58;16.90;99.90
9389;DHT22;4734;52.778;6.798;2023-07-30T02:18:44;16.80;99.90
9389;DHT22;4734;52.778;6.798;2023-07-30T02:21:29;16.80;99.90
9389;DHT22;4734;52.778;6.798;2023-07-30T02:24:16;16.80;99.90
9389;DHT22;4734;52.778;6.798;2023-07-30T02:27:02;16.80;99.90
9389;DHT22;4734;52.778;6.798;2023-07-30T02:29:49;16.80;99.90
9389;DHT22;4734;52.778;6.798;2023-07-30T02:32:35;16.80;99.90
9389;DHT22;4734;52.778;6.798;2023-07-30T02:35:20;16.80;99.90
9389;DHT22;4734;52.778;6.798;2023-07-30T02:38:06;16.70;99.90
9389;DHT22;4734;52.778;6.798;2023-07-30T02:40:51;16.70;99.90
9389;DHT22;4734;52.778;6.798;2023-07-30T02:43:37;16.70;99.90
9389;DHT22;4734;52.778;6.798;2023-07-30T02:46:24;16.70;99.90
9389;DHT22;4734;52.778;6.798;2023-07-30T02:49:10;16.60;99.90
9389;DHT22;4734;52.778;6.798;2023-07-30T02:51:55;16.60;99.90
9389;DHT22;4734;52.778;6.798;2023-07-30T02:54:41;16.60;99.90
9389;DHT22;4734;52.778;6.798;2023-07-30T02:57:27;16.70;99.90
9389;DHT22;4734;52.778;6.798;2023-07-30T03:00:13;16.60;99.90
9389;DHT22;4734;52.778;6.798;2023-07-30T03:03:00;16.60;99.90
9389;DHT22;4734;52.778;6.798;2023-07-30T03:05:45;16.60;99.90
9389;DHT22;4734;52.778;6.798;2023-07-30T03:08:31;16.60;99.90
9389;DHT22;4734;52.778;6.798;2023-07-30T03:11:16;16.50;99.90
9389;DHT22;4734;52.778;6.798;2023-07-30T03:14:02;16.50;99.90
9389;DHT22;4734;52.778;6.798;2023-07-30T03:16:48;16.50;99.90
9389;DHT22;4734;52.778;6.798;2023-07-30T03:19:35;16.50;99.90
9389;DHT22;4734;52.778;6.798;2023-07-30T03:22:20;16.50;99.90
9389;DHT22;4734;52.778;6.798;2023-07-30T03:25:06;16.50;99.90
9389;DHT22;4734;52.778;6.798;2023-07-30T03:27:52;16.50;99.90
9389;DHT22;4734;52.778;6.798;2023-07-30T03:30:38;16.50;99.90
9389;DHT22;4734;52.778;6.798;2023-07-30T03:33:23;16.50;99.90
9389;DHT22;4734;52.778;6.798;2023-07-30T03:36:11;16.40;99.90
9389;DHT22;4734;52.778;6.798;2023-07-30T03:38:56;16.40;99.90
9389;DHT22;4734;52.778;6.798;2023-07-30T03:41:42;16.40;99.90
9389;DHT22;4734;52.778;6.798;2023-07-30T03:44:28;16.40;99.90
9389;DHT22;4734;52.778;6.798;2023-07-30T03:47:13;16.40;99.90
9389;DHT22;4734;52.778;6.798;2023-07-30T03:49:59;16.40;99.90
9389;DHT22;4734;52.778;6.798;2023-07-30T03:52:46;16.40;99.90
9389;DHT22;4734;52.778;6.798;2023-07-30T03:55:31;16.40;99.90
9389;DHT22;4734;52.778;6.798;2023-07-30T03:58:17;16.40;99.90
9389;DHT22;4734;52.778;6.798;2023-07-30T04:01:03;16.30;99.90
9389;DHT22;4734;52.778;6.798;2023-07-30T04:03:48;16.30;99.90
9389;DHT22;4734;52.778;6.798;2023-07-30T04:06:34;16.30;99.90
9389;DHT22;4734;52.778;6.798;2023-07-30T04:09:21;16.30;99.90
9389;DHT22;4734;52.778;6.798;2023-07-30T04:12:07;16.30;99.90
9389;DHT22;4734;52.778;6.798;2023-07-30T04:14:52;16.30;99.90
9389;DHT22;4734;52.778;6.798;2023-07-30T04:17:38;16.30;99.90
9389;DHT22;4734;52.778;6.798;2023-07-30T04:20:24;16.30;99.90
9389;DHT22;4734;52.778;6.798;2023-07-30T04:23:10;16.30;99.90
9389;DHT22;4734;52.778;6.798;2023-07-30T04:25:57;16.30;99.90
9389;DHT22;4734;52.778;6.798;2023-07-30T04:28:42;16.30;99.90
9389;DHT22;4734;52.778;6.798;2023-07-30T04:31:28;16.30;99.90
9389;DHT22;4734;52.778;6.798;2023-07-30T04:34:13;16.30;99.90
9389;DHT22;4734;52.778;6.798;2023-07-30T04:36:59;16.30;99.90
9389;DHT22;4734;52.778;6.798;2023-07-30T04:39:46;16.20;99.90
9389;DHT22;4734;52.778;6.798;2023-07-30T04:42:33;16.20;99.90
9389;DHT22;4734;52.778;6.798;2023-07-30T04:45:18;16.30;99.90
9389;DHT22;4734;52.778;6.798;2023-07-30T04:48:04;16.20;99.90
9389;DHT22;4734;52.778;6.798;2023-07-30T04:50:50;16.30;99.90
9389;DHT22;4734;52.778;6.798;2023-07-30T04:53:36;16.30;99.90
9389;DHT22;4734;52.778;6.798;2023-07-30T04:56:22;16.30;99.90
9389;DHT22;4734;52.778;6.798;2023-07-30T04:59:09;16.30;99.90
9389;DHT22;4734;52.778;6.798;2023-07-30T05:01:55;16.30;99.90
9389;DHT22;4734;52.778;6.798;2023-07-30T05:04:40;16.40;99.90
9389;DHT22;4734;52.778;6.798;2023-07-30T05:07:26;16.40;99.90
9389;DHT22;4734;52.778;6.798;2023-07-30T05:10:12;16.40;99.90
9389;DHT22;4734;52.778;6.798;2023-07-30T05:12:57;16.40;99.90
9389;DHT22;4734;52.778;6.798;2023-07-30T05:15:44;16.40;99.90
9389;DHT22;4734;52.778;6.798;2023-07-30T05:18:30;16.30;99.90
9389;DHT22;4734;52.778;6.798;2023-07-30T05:21:15;16.20;99.90
9389;DHT22;4734;52.778;6.798;2023-07-30T05:24:01;16.30;99.90
9389;DHT22;4734;52.778;6.798;2023-07-30T05:26:47;16.30;99.90
9389;DHT22;4734;52.778;6.798;2023-07-30T05:29:32;16.30;99.90
9389;DHT22;4734;52.778;6.798;2023-07-30T05:32:19;16.30;99.90
9389;DHT22;4734;52.778;6.798;2023-07-30T05:35:06;16.40;99.90
9389;DHT22;4734;52.778;6.798;2023-07-30T05:37:51;16.40;99.90
9389;DHT22;4734;52.778;6.798;2023-07-30T05:40:37;16.40;99.90
9389;DHT22;4734;52.778;6.798;2023-07-30T05:43:23;16.40;99.90
9389;DHT22;4734;52.778;6.798;2023-07-30T05:46:08;16.40;99.90
9389;DHT22;4734;52.778;6.798;2023-07-30T05:48:56;16.50;99.90
9389;DHT22;4734;52.778;6.798;2023-07-30T05:51:42;16.50;99.90
9389;DHT22;4734;52.778;6.798;2023-07-30T05:54:27;16.50;99.90
9389;DHT22;4734;52.778;6.798;2023-07-30T05:57:13;16.50;99.90
9389;DHT22;4734;52.778;6.798;2023-07-30T05:59:59;16.50;99.90
9389;DHT22;4734;52.778;6.798;2023-07-30T06:02:44;16.60;99.90
9389;DHT22;4734;52.778;6.798;2023-07-30T06:05:31;16.60;99.90
9389;DHT22;4734;52.778;6.798;2023-07-30T06:08:17;16.60;99.90
9389;DHT22;4734;52.778;6.798;2023-07-30T06:11:02;16.60;99.90
9389;DHT22;4734;52.778;6.798;2023-07-30T06:13:48;16.60;99.90
9389;DHT22;4734;52.778;6.798;2023-07-30T06:16:34;16.70;99.90
9389;DHT22;4734;52.778;6.798;2023-07-30T06:19:19;16.70;99.90
9389;DHT22;4734;52.778;6.798;2023-07-30T06:22:06;16.70;99.90
9389;DHT22;4734;52.778;6.798;2023-07-30T06:44:13;16.70;99.90
9389;DHT22;4734;52.778;6.798;2023-07-30T06:46:58;17.10;99.90
9389;DHT22;4734;52.778;6.798;2023-07-30T06:49:44;17.10;99.90
9389;DHT22;4734;52.778;6.798;2023-07-30T06:52:30;17.10;99.90
9389;DHT22;4734;52.778;6.798;2023-07-30T06:55:17;17.20;99.90
9389;DHT22;4734;52.778;6.798;2023-07-30T06:58:03;17.20;99.90
9389;DHT22;4734;52.778;6.798;2023-07-30T07:00:48;17.20;99.90
9389;DHT22;4734;52.778;6.798;2023-07-30T07:03:34;17.30;99.90
9389;DHT22;4734;52.778;6.798;2023-07-30T07:06:19;17.30;99.90
9389;DHT22;4734;52.778;6.798;2023-07-30T07:09:05;17.40;99.90
9389;DHT22;4734;52.778;6.798;2023-07-30T07:11:52;17.40;99.90
9389;DHT22;4734;52.778;6.798;2023-07-30T07:14:37;17.40;99.90
9389;DHT22;4734;52.778;6.798;2023-07-30T07:17:23;17.50;99.90
9389;DHT22;4734;52.778;6.798;2023-07-30T07:20:09;17.50;99.90
9389;DHT22;4734;52.778;6.798;2023-07-30T07:22:56;17.60;99.90
9389;DHT22;4734;52.778;6.798;2023-07-30T07:34:00;17.60;99.90
9389;DHT22;4734;52.778;6.798;2023-07-30T07:36:46;17.80;99.90
9389;DHT22;4734;52.778;6.798;2023-07-30T07:39:32;17.90;99.90
9389;DHT22;4734;52.778;6.798;2023-07-30T07:42:19;17.90;99.90
9389;DHT22;4734;52.778;6.798;2023-07-30T07:45:07;18.00;99.90
9389;DHT22;4734;52.778;6.798;2023-07-30T07:47:53;18.10;99.90
9389;DHT22;4734;52.778;6.798;2023-07-30T07:50:38;18.00;99.90
9389;DHT22;4734;52.778;6.798;2023-07-30T07:53:24;18.10;99.90
9389;DHT22;4734;52.778;6.798;2023-07-30T07:56:09;18.10;99.90
9389;DHT22;4734;52.778;6.798;2023-07-30T07:58:55;18.20;99.90
9389;DHT22;4734;52.778;6.798;2023-07-30T08:01:42;18.20;99.90
9389;DHT22;4734;52.778;6.798;2023-07-30T08:04:27;18.20;99.90
9389;DHT22;4734;52.778;6.798;2023-07-30T08:07:13;18.30;99.90
9389;DHT22;4734;52.778;6.798;2023-07-30T08:09:59;18.40;99.90
9389;DHT22;4734;52.778;6.798;2023-07-30T08:12:44;18.40;99.90
9389;DHT22;4734;52.778;6.798;2023-07-30T08:15:33;18.50;99.90
9389;DHT22;4734;52.778;6.798;2023-07-30T08:18:19;18.60;99.90
9389;DHT22;4734;52.778;6.798;2023-07-30T08:21:05;18.70;99.90
9389;DHT22;4734;52.778;6.798;2023-07-30T08:23:50;18.80;99.90
9389;DHT22;4734;52.778;6.798;2023-07-30T08:26:36;18.80;99.90
9389;DHT22;4734;52.778;6.798;2023-07-30T08:29:22;18.90;99.90
9389;DHT22;4734;52.778;6.798;2023-07-30T08:32:07;19.00;99.90
9389;DHT22;4734;52.778;6.798;2023-07-30T08:34:55;19.10;99.90
9389;DHT22;4734;52.778;6.798;2023-07-30T08:37:40;19.20;99.90
9389;DHT22;4734;52.778;6.798;2023-07-30T08:40:26;19.30;99.90
9389;DHT22;4734;52.778;6.798;2023-07-30T08:43:12;19.40;99.90
9389;DHT22;4734;52.778;6.798;2023-07-30T08:45:57;19.50;99.90
9389;DHT22;4734;52.778;6.798;2023-07-30T08:48:44;19.60;99.90
9389;DHT22;4734;52.778;6.798;2023-07-30T08:51:32;19.70;99.90
9389;DHT22;4734;52.778;6.798;2023-07-30T08:54:20;19.80;99.90
9389;DHT22;4734;52.778;6.798;2023-07-30T08:57:06;19.90;99.90
9389;DHT22;4734;52.778;6.798;2023-07-30T08:59:54;20.00;99.90
9389;DHT22;4734;52.778;6.798;2023-07-30T09:02:44;20.10;99.90
9389;DHT22;4734;52.778;6.798;2023-07-30T09:05:30;20.20;99.90
9389;DHT22;4734;52.778;6.798;2023-07-30T09:08:18;20.30;99.90
9389;DHT22;4734;52.778;6.798;2023-07-30T09:11:07;20.40;99.90
9389;DHT22;4734;52.778;6.798;2023-07-30T09:13:54;20.40;99.90
9389;DHT22;4734;52.778;6.798;2023-07-30T09:16:40;20.50;99.90
9389;DHT22;4734;52.778;6.798;2023-07-30T09:19:26;20.60;99.90
9389;DHT22;4734;52.778;6.798;2023-07-30T09:22:12;20.60;99.90
9389;DHT22;4734;52.778;6.798;2023-07-30T09:25:02;20.60;99.90
9389;DHT22;4734;52.778;6.798;2023-07-30T09:27:49;20.60;99.90
9389;DHT22;4734;52.778;6.798;2023-07-30T09:30:35;20.70;99.90
9389;DHT22;4734;52.778;6.798;2023-07-30T09:33:21;20.70;99.90
9389;DHT22;4734;52.778;6.798;2023-07-30T09:36:07;20.80;99.90
9389;DHT22;4734;52.778;6.798;2023-07-30T09:38:53;20.80;99.90
9389;DHT22;4734;52.778;6.798;2023-07-30T09:41:43;20.80;99.90
9389;DHT22;4734;52.778;6.798;2023-07-30T09:44:29;20.80;99.90
9389;DHT22;4734;52.778;6.798;2023-07-30T09:47:17;20.90;99.90
9389;DHT22;4734;52.778;6.798;2023-07-30T09:50:03;20.90;99.90
9389;DHT22;4734;52.778;6.798;2023-07-30T09:52:49;20.90;99.90
9389;DHT22;4734;52.778;6.798;2023-07-30T09:55:35;20.90;99.90
9389;DHT22;4734;52.778;6.798;2023-07-30T09:58:22;20.90;99.90
9389;DHT22;4734;52.778;6.798;2023-07-30T10:01:07;20.90;99.90
9389;DHT22;4734;52.778;6.798;2023-07-30T10:03:56;20.90;99.90
9389;DHT22;4734;52.778;6.798;2023-07-30T10:06:46;20.90;99.90
9389;DHT22;4734;52.778;6.798;2023-07-30T10:09:37;20.80;99.90
9389;DHT22;4734;52.778;6.798;2023-07-30T10:12:32;20.80;99.90
9389;DHT22;4734;52.778;6.798;2023-07-30T10:15:21;20.70;99.90
9389;DHT22;4734;52.778;6.798;2023-07-30T10:18:07;20.70;99.90
9389;DHT22;4734;52.778;6.798;2023-07-30T10:20:55;20.70;99.90
9389;DHT22;4734;52.778;6.798;2023-07-30T10:23:46;20.50;99.90
9389;DHT22;4734;52.778;6.798;2023-07-30T10:26:33;20.50;99.90
9389;DHT22;4734;52.778;6.798;2023-07-30T10:29:20;20.50;99.90
9389;DHT22;4734;52.778;6.798;2023-07-30T10:32:08;20.40;99.90
9389;DHT22;4734;52.778;6.798;2023-07-30T10:34:55;20.30;99.90
9389;DHT22;4734;52.778;6.798;2023-07-30T10:37:45;20.30;99.90
9389;DHT22;4734;52.778;6.798;2023-07-30T10:40:31;20.30;99.90
9389;DHT22;4734;52.778;6.798;2023-07-30T10:43:17;20.20;99.90
9389;DHT22;4734;52.778;6.798;2023-07-30T10:46:03;20.20;99.90
9389;DHT22;4734;52.778;6.798;2023-07-30T10:48:50;20.10;99.90
9389;DHT22;4734;52.778;6.798;2023-07-30T10:51:36;20.10;99.90
9389;DHT22;4734;52.778;6.798;2023-07-30T10:54:22;20.00;99.90
9389;DHT22;4734;52.778;6.798;2023-07-30T10:57:07;19.90;99.90
9389;DHT22;4734;52.778;6.798;2023-07-30T10:59:53;19.90;99.90
9389;DHT22;4734;52.778;6.798;2023-07-30T11:02:40;19.80;99.90
9389;DHT22;4734;52.778;6.798;2023-07-30T11:05:27;19.70;99.90
9389;DHT22;4734;52.778;6.798;2023-07-30T11:08:14;19.70;99.90
9389;DHT22;4734;52.778;6.798;2023-07-30T11:10:59;19.60;99.90
9389;DHT22;4734;52.778;6.798;2023-07-30T11:13:46;19.60;99.90
9389;DHT22;4734;52.778;6.798;2023-07-30T11:16:32;19.60;99.90
9389;DHT22;4734;52.778;6.798;2023-07-30T11:19:18;19.60;99.90
9389;DHT22;4734;52.778;6.798;2023-07-30T11:22:05;19.60;99.90
9389;DHT22;4734;52.778;6.798;2023-07-30T11:24:53;19.70;99.90
9389;DHT22;4734;52.778;6.798;2023-07-30T11:27:45;19.70;99.90
9389;DHT22;4734;52.778;6.798;2023-07-30T11:30:32;19.80;99.90
9389;DHT22;4734;52.778;6.798;2023-07-30T11:33:24;19.90;99.90
9389;DHT22;4734;52.778;6.798;2023-07-30T11:36:12;19.90;99.90
9389;DHT22;4734;52.778;6.798;2023-07-30T11:39:00;20.00;99.90
9389;DHT22;4734;52.778;6.798;2023-07-30T11:41:46;20.00;99.90
9389;DHT22;4734;52.778;6.798;2023-07-30T11:44:34;20.10;99.90
9389;DHT22;4734;52.778;6.798;2023-07-30T11:47:22;20.20;99.90
9389;DHT22;4734;52.778;6.798;2023-07-30T11:50:08;20.20;99.90
9389;DHT22;4734;52.778;6.798;2023-07-30T11:52:54;20.30;99.90
9389;DHT22;4734;52.778;6.798;2023-07-30T11:55:42;20.40;99.90
9389;DHT22;4734;52.778;6.798;2023-07-30T11:58:31;20.50;99.90
9389;DHT22;4734;52.778;6.798;2023-07-30T12:01:18;20.50;99.90
9389;DHT22;4734;52.778;6.798;2023-07-30T12:04:05;20.60;99.90
9389;DHT22;4734;52.778;6.798;2023-07-30T12:06:52;20.60;99.90
9389;DHT22;4734;52.778;6.798;2023-07-30T12:09:38;20.70;99.90
9389;DHT22;4734;52.778;6.798;2023-07-30T12:12:26;20.70;99.90
9389;DHT22;4734;52.778;6.798;2023-07-30T12:15:12;20.70;99.90
9389;DHT22;4734;52.778;6.798;2023-07-30T12:17:58;20.80;99.90
9389;DHT22;4734;52.778;6.798;2023-07-30T12:20:44;20.80;99.90
9389;DHT22;4734;52.778;6.798;2023-07-30T12:23:29;20.80;99.90
9389;DHT22;4734;52.778;6.798;2023-07-30T12:26:15;20.80;99.90
9389;DHT22;4734;52.778;6.798;2023-07-30T12:29:03;20.90;99.90
9389;DHT22;4734;52.778;6.798;2023-07-30T12:31:48;20.80;99.90
9389;DHT22;4734;52.778;6.798;2023-07-30T12:34:36;21.00;99.90
9389;DHT22;4734;52.778;6.798;2023-07-30T12:37:21;21.00;99.90
9389;DHT22;4734;52.778;6.798;2023-07-30T12:40:08;21.10;99.90
9389;DHT22;4734;52.778;6.798;2023-07-30T12:42:54;21.10;99.90
9389;DHT22;4734;52.778;6.798;2023-07-30T12:45:41;21.20;99.90
9389;DHT22;4734;52.778;6.798;2023-07-30T12:48:26;21.20;99.90
9389;DHT22;4734;52.778;6.798;2023-07-30T12:51:11;21.30;99.90
9389;DHT22;4734;52.778;6.798;2023-07-30T12:53:57;21.30;99.90
9389;DHT22;4734;52.778;6.798;2023-07-30T12:56:43;21.40;99.90
9389;DHT22;4734;52.778;6.798;2023-07-30T12:59:28;21.40;99.90
9389;DHT22;4734;52.778;6.798;2023-07-30T13:02:16;21.40;99.90
9389;DHT22;4734;52.778;6.798;2023-07-30T13:05:02;21.50;99.90
9389;DHT22;4734;52.778;6.798;2023-07-30T13:07:48;21.50;99.90
9389;DHT22;4734;52.778;6.798;2023-07-30T13:10:33;21.50;99.90
9389;DHT22;4734;52.778;6.798;2023-07-30T13:13:19;21.50;99.90
9389;DHT22;4734;52.778;6.798;2023-07-30T13:16:05;21.60;99.90
9389;DHT22;4734;52.778;6.798;2023-07-30T13:18:52;21.60;99.90
9389;DHT22;4734;52.778;6.798;2023-07-30T13:21:41;21.60;99.90
9389;DHT22;4734;52.778;6.798;2023-07-30T13:24:27;21.60;99.90
9389;DHT22;4734;52.778;6.798;2023-07-30T13:27:17;21.70;99.90
9389;DHT22;4734;52.778;6.798;2023-07-30T13:30:06;21.70;99.90
9389;DHT22;4734;52.778;6.798;2023-07-30T13:32:52;21.70;99.90
9389;DHT22;4734;52.778;6.798;2023-07-30T13:35:39;21.70;99.90
9389;DHT22;4734;52.778;6.798;2023-07-30T13:38:24;21.70;99.90
9389;DHT22;4734;52.778;6.798;2023-07-30T13:41:10;21.70;99.90
9389;DHT22;4734;52.778;6.798;2023-07-30T13:43:56;21.70;99.90
9389;DHT22;4734;52.778;6.798;2023-07-30T13:46:42;21.80;99.90
9389;DHT22;4734;52.778;6.798;2023-07-30T13:49:28;21.80;99.90
9389;DHT22;4734;52.778;6.798;2023-07-30T13:52:14;21.90;99.90
9389;DHT22;4734;52.778;6.798;2023-07-30T13:55:00;22.00;99.90
9389;DHT22;4734;52.778;6.798;2023-07-30T13:57:46;22.10;99.90
9389;DHT22;4734;52.778;6.798;2023-07-30T14:00:31;22.10;99.90
9389;DHT22;4734;52.778;6.798;2023-07-30T14:03:17;22.20;99.90
9389;DHT22;4734;52.778;6.798;2023-07-30T14:06:03;22.30;99.90
9389;DHT22;4734;52.778;6.798;2023-07-30T14:08:50;22.30;99.90
9389;DHT22;4734;52.778;6.798;2023-07-30T14:11:36;22.40;99.90
9389;DHT22;4734;52.778;6.798;2023-07-30T14:14:22;22.40;99.90
9389;DHT22;4734;52.778;6.798;2023-07-30T14:17:08;22.50;99.90
9389;DHT22;4734;52.778;6.798;2023-07-30T14:19:53;22.50;99.90
9389;DHT22;4734;52.778;6.798;2023-07-30T14:22:39;22.60;99.90
9389;DHT22;4734;52.778;6.798;2023-07-30T14:25:29;22.60;99.90
9389;DHT22;4734;52.778;6.798;2023-07-30T14:28:14;22.60;99.90
9389;DHT22;4734;52.778;6.798;2023-07-30T14:31:00;22.60;99.90
9389;DHT22;4734;52.778;6.798;2023-07-30T14:33:46;22.60;99.90
9389;DHT22;4734;52.778;6.798;2023-07-30T14:36:32;22.70;99.90
9389;DHT22;4734;52.778;6.798;2023-07-30T14:39:19;22.60;99.90
9389;DHT22;4734;52.778;6.798;2023-07-30T14:42:06;22.60;99.90
9389;DHT22;4734;52.778;6.798;2023-07-30T14:44:52;22.60;99.90
9389;DHT22;4734;52.778;6.798;2023-07-30T14:47:38;22.60;99.90
9389;DHT22;4734;52.778;6.798;2023-07-30T14:50:23;22.60;99.90
9389;DHT22;4734;52.778;6.798;2023-07-30T14:53:09;22.50;99.90
9389;DHT22;4734;52.778;6.798;2023-07-30T14:55:55;22.50;99.90
9389;DHT22;4734;52.778;6.798;2023-07-30T14:58:42;22.60;99.90
9389;DHT22;4734;52.778;6.798;2023-07-30T15:01:29;22.60;99.90
9389;DHT22;4734;52.778;6.798;2023-07-30T15:04:14;22.60;99.90
9389;DHT22;4734;52.778;6.798;2023-07-30T15:07:00;22.60;99.90
9389;DHT22;4734;52.778;6.798;2023-07-30T15:09:45;22.60;99.90
9389;DHT22;4734;52.778;6.798;2023-07-30T15:12:31;22.70;99.90
9389;DHT22;4734;52.778;6.798;2023-07-30T15:15:18;22.70;99.90
9389;DHT22;4734;52.778;6.798;2023-07-30T15:18:04;22.70;99.90
9389;DHT22;4734;52.778;6.798;2023-07-30T15:20:54;22.70;99.90
9389;DHT22;4734;52.778;6.798;2023-07-30T15:23:42;22.70;99.90
9389;DHT22;4734;52.778;6.798;2023-07-30T15:26:28;22.70;99.90
9389;DHT22;4734;52.778;6.798;2023-07-30T15:29:13;22.70;99.90
9389;DHT22;4734;52.778;6.798;2023-07-30T15:32:02;22.70;99.90
9389;DHT22;4734;52.778;6.798;2023-07-30T15:34:47;22.80;99.90
9389;DHT22;4734;52.778;6.798;2023-07-30T15:37:33;22.80;99.90
9389;DHT22;4734;52.778;6.798;2023-07-30T15:40:18;22.80;99.90
9389;DHT22;4734;52.778;6.798;2023-07-30T15:43:04;22.80;99.90
9389;DHT22;4734;52.778;6.798;2023-07-30T15:45:51;22.80;99.90
9389;DHT22;4734;52.778;6.798;2023-07-30T15:48:40;22.80;99.90
9389;DHT22;4734;52.778;6.798;2023-07-30T15:51:26;22.70;99.90
9389;DHT22;4734;52.778;6.798;2023-07-30T15:54:13;22.70;99.90
9389;DHT22;4734;52.778;6.798;2023-07-30T15:56:59;22.70;99.90
9389;DHT22;4734;52.778;6.798;2023-07-30T15:59:45;22.70;99.90
9389;DHT22;4734;52.778;6.798;2023-07-30T16:02:32;22.70;99.90
9389;DHT22;4734;52.778;6.798;2023-07-30T16:05:19;22.60;99.90
9389;DHT22;4734;52.778;6.798;2023-07-30T16:08:05;22.60;99.90
9389;DHT22;4734;52.778;6.798;2023-07-30T16:11:00;22.60;99.90
9389;DHT22;4734;52.778;6.798;2023-07-30T16:13:45;22.60;99.90
9389;DHT22;4734;52.778;6.798;2023-07-30T16:16:32;22.60;99.90
9389;DHT22;4734;52.778;6.798;2023-07-30T16:19:17;22.60;99.90
9389;DHT22;4734;52.778;6.798;2023-07-30T16:22:05;22.60;99.90
9389;DHT22;4734;52.778;6.798;2023-07-30T16:24:50;22.60;99.90
9389;DHT22;4734;52.778;6.798;2023-07-30T16:27:36;22.60;99.90
9389;DHT22;4734;52.778;6.798;2023-07-30T16:30:21;22.60;99.90
9389;DHT22;4734;52.778;6.798;2023-07-30T16:33:07;22.50;99.90
9389;DHT22;4734;52.778;6.798;2023-07-30T16:35:54;22.50;99.90
9389;DHT22;4734;52.778;6.798;2023-07-30T16:38:41;22.50;99.90
9389;DHT22;4734;52.778;6.798;2023-07-30T16:41:27;22.50;99.90
9389;DHT22;4734;52.778;6.798;2023-07-30T16:44:12;22.50;99.90
9389;DHT22;4734;52.778;6.798;2023-07-30T16:46:59;22.50;99.90
9389;DHT22;4734;52.778;6.798;2023-07-30T16:49:48;22.50;99.90
9389;DHT22;4734;52.778;6.798;2023-07-30T16:52:34;22.50;99.90
9389;DHT22;4734;52.778;6.798;2023-07-30T16:55:21;22.50;99.90
9389;DHT22;4734;52.778;6.798;2023-07-30T16:58:06;22.50;99.90
9389;DHT22;4734;52.778;6.798;2023-07-30T17:00:58;22.50;99.90
9389;DHT22;4734;52.778;6.798;2023-07-30T17:03:45;22.50;99.90
9389;DHT22;4734;52.778;6.798;2023-07-30T17:06:31;22.40;99.90
9389;DHT22;4734;52.778;6.798;2023-07-30T17:09:16;22.40;99.90
9389;DHT22;4734;52.778;6.798;2023-07-30T17:12:04;22.40;99.90
9389;DHT22;4734;52.778;6.798;2023-07-30T17:14:49;22.40;99.90
9389;DHT22;4734;52.778;6.798;2023-07-30T17:17:35;22.30;99.90
9389;DHT22;4734;52.778;6.798;2023-07-30T17:20:21;22.30;99.90
9389;DHT22;4734;52.778;6.798;2023-07-30T17:23:07;22.30;99.90
9389;DHT22;4734;52.778;6.798;2023-07-30T17:25:53;22.20;99.90
9389;DHT22;4734;52.778;6.798;2023-07-30T17:28:41;22.20;99.90
9389;DHT22;4734;52.778;6.798;2023-07-30T17:31:27;22.10;99.90
9389;DHT22;4734;52.778;6.798;2023-07-30T17:34:13;22.10;99.90
9389;DHT22;4734;52.778;6.798;2023-07-30T17:36:59;22.10;99.90
9389;DHT22;4734;52.778;6.798;2023-07-30T17:39:45;22.00;99.90
9389;DHT22;4734;52.778;6.798;2023-07-30T17:42:30;22.00;99.90
9389;DHT22;4734;52.778;6.798;2023-07-30T17:45:17;21.90;99.90
9389;DHT22;4734;52.778;6.798;2023-07-30T17:48:03;21.80;99.90
9389;DHT22;4734;52.778;6.798;2023-07-30T17:50:49;21.80;99.90
9389;DHT22;4734;52.778;6.798;2023-07-30T17:53:34;21.70;99.90
9389;DHT22;4734;52.778;6.798;2023-07-30T17:56:20;21.70;99.90
9389;DHT22;4734;52.778;6.798;2023-07-30T17:59:06;21.70;99.90
9389;DHT22;4734;52.778;6.798;2023-07-30T18:01:53;21.60;99.90
9389;DHT22;4734;52.778;6.798;2023-07-30T18:04:38;21.50;99.90
9389;DHT22;4734;52.778;6.798;2023-07-30T18:07:24;21.50;99.90
9389;DHT22;4734;52.778;6.798;2023-07-30T18:10:09;21.40;99.90
9389;DHT22;4734;52.778;6.798;2023-07-30T18:12:55;21.40;99.90
9389;DHT22;4734;52.778;6.798;2023-07-30T18:18:28;21.30;99.90
9389;DHT22;4734;52.778;6.798;2023-07-30T18:21:14;21.20;99.90
9389;DHT22;4734;52.778;6.798;2023-07-30T18:24:00;21.20;99.90
9389;DHT22;4734;52.778;6.798;2023-07-30T18:26:46;21.10;99.90
9389;DHT22;4734;52.778;6.798;2023-07-30T18:29:31;21.10;99.90
9389;DHT22;4734;52.778;6.798;2023-07-30T18:32:22;21.00;99.90
9389;DHT22;4734;52.778;6.798;2023-07-30T18:35:09;21.00;99.90
9389;DHT22;4734;52.778;6.798;2023-07-30T18:37:55;20.90;99.90
9389;DHT22;4734;52.778;6.798;2023-07-30T18:40:41;20.90;99.90
9389;DHT22;4734;52.778;6.798;2023-07-30T18:43:26;20.80;99.90
9389;DHT22;4734;52.778;6.798;2023-07-30T18:46:12;20.80;99.90